sensor_id;sensor_type;location;lat;lon;timestamp;P1;durP1;ratioP1;P2;durP2;ratioP2
438;SDS011;206;48.782;9.252;2023-09-07T00:00:47;6.47;;;6.07;;
438;SDS011;206;48.782;9.252;2023-09-07T00:03:14;6.47;;;6.10;;
438;SDS011;206;48.782;9.252;2023-09-07T00:05:40;6.80;;;6.20;;
438;SDS011;206;48.782;9.252;2023-09-07T00:08:05;7.50;;;5.53;;
438;SDS011;206;48.782;9.252;2023-09-07T00:10:34;8.63;;;6.37;;
438;SDS011;206;48.782;9.252;2023-09-07T00:13:00;7.53;;;5.73;;
438;SDS011;206;48.782;9.252;2023-09-07T00:15:27;10.30;;;6.17;;
438;SDS011;206;48.782;9.252;2023-09-07T00:17:53;6.73;;;5.83;;
438;SDS011;206;48.782;9.252;2023-09-07T00:20:19;9.63;;;6.47;;
438;SDS011;206;48.782;9.252;2023-09-07T00:22:46;5.67;;;5.37;;
438;SDS011;206;48.782;9.252;2023-09-07T00:25:12;7.40;;;5.53;;
438;SDS011;206;48.782;9.252;2023-09-07T00:27:38;8.10;;;6.70;;
438;SDS011;206;48.782;9.252;2023-09-07T00:30:04;8.17;;;6.47;;
438;SDS011;206;48.782;9.252;2023-09-07T00:32:32;5.40;;;5.10;;
438;SDS011;206;48.782;9.252;2023-09-07T00:34:58;8.73;;;6.57;;
438;SDS011;206;48.782;9.252;2023-09-07T00:37:24;8.40;;;6.97;;
438;SDS011;206;48.782;9.252;2023-09-07T00:39:50;9.70;;;6.20;;
438;SDS011;206;48.782;9.252;2023-09-07T00:42:17;6.60;;;5.90;;
438;SDS011;206;48.782;9.252;2023-09-07T00:44:43;7.33;;;6.50;;
438;SDS011;206;48.782;9.252;2023-09-07T00:47:09;7.27;;;6.43;;
438;SDS011;206;48.782;9.252;2023-09-07T00:49:34;12.67;;;7.37;;
438;SDS011;206;48.782;9.252;2023-09-07T00:52:01;7.50;;;7.00;;
438;SDS011;206;48.782;9.252;2023-09-07T00:54:26;8.63;;;7.07;;
438;SDS011;206;48.782;9.252;2023-09-07T00:56:53;8.90;;;7.60;;
438;SDS011;206;48.782;9.252;2023-09-07T00:59:19;9.93;;;8.57;;
438;SDS011;206;48.782;9.252;2023-09-07T01:01:45;9.60;;;8.10;;
438;SDS011;206;48.782;9.252;2023-09-07T01:04:11;8.90;;;8.13;;
438;SDS011;206;48.782;9.252;2023-09-07T01:06:37;8.57;;;7.90;;
438;SDS011;206;48.782;9.252;2023-09-07T01:09:11;12.47;;;9.13;;
438;SDS011;206;48.782;9.252;2023-09-07T01:11:42;10.13;;;8.80;;
438;SDS011;206;48.782;9.252;2023-09-07T01:14:08;9.47;;;8.30;;
438;SDS011;206;48.782;9.252;2023-09-07T01:16:35;11.40;;;8.43;;
438;SDS011;206;48.782;9.252;2023-09-07T01:19:03;7.80;;;6.97;;
438;SDS011;206;48.782;9.252;2023-09-07T01:21:33;11.30;;;8.83;;
438;SDS011;206;48.782;9.252;2023-09-07T01:24:00;13.27;;;8.97;;
438;SDS011;206;48.782;9.252;2023-09-07T01:26:27;9.03;;;7.60;;
438;SDS011;206;48.782;9.252;2023-09-07T01:28:53;12.90;;;8.33;;
438;SDS011;206;48.782;9.252;2023-09-07T01:31:19;10.90;;;8.23;;
438;SDS011;206;48.782;9.252;2023-09-07T01:33:45;9.80;;;8.17;;
438;SDS011;206;48.782;9.252;2023-09-07T01:36:11;10.80;;;9.10;;
438;SDS011;206;48.782;9.252;2023-09-07T01:38:36;12.97;;;9.20;;
438;SDS011;206;48.782;9.252;2023-09-07T01:41:02;9.23;;;7.83;;
438;SDS011;206;48.782;9.252;2023-09-07T01:43:27;8.93;;;7.90;;
438;SDS011;206;48.782;9.252;2023-09-07T01:45:53;12.90;;;7.60;;
438;SDS011;206;48.782;9.252;2023-09-07T01:48:18;8.60;;;8.03;;
438;SDS011;206;48.782;9.252;2023-09-07T01:50:44;10.50;;;7.90;;
438;SDS011;206;48.782;9.252;2023-09-07T01:53:10;8.83;;;7.27;;
438;SDS011;206;48.782;9.252;2023-09-07T01:55:35;7.97;;;6.90;;
438;SDS011;206;48.782;9.252;2023-09-07T01:58:01;9.10;;;6.83;;
438;SDS011;206;48.782;9.252;2023-09-07T02:00:27;9.60;;;7.50;;
438;SDS011;206;48.782;9.252;2023-09-07T02:02:52;9.07;;;7.57;;
438;SDS011;206;48.782;9.252;2023-09-07T02:05:18;12.97;;;7.30;;
438;SDS011;206;48.782;9.252;2023-09-07T02:07:44;8.53;;;6.90;;
438;SDS011;206;48.782;9.252;2023-09-07T02:10:10;9.60;;;7.27;;
438;SDS011;206;48.782;9.252;2023-09-07T02:12:37;10.03;;;7.17;;
438;SDS011;206;48.782;9.252;2023-09-07T02:15:03;12.53;;;8.10;;
438;SDS011;206;48.782;9.252;2023-09-07T02:17:30;11.20;;;8.30;;
438;SDS011;206;48.782;9.252;2023-09-07T02:19:57;8.20;;;7.80;;
438;SDS011;206;48.782;9.252;2023-09-07T02:22:23;8.83;;;7.50;;
438;SDS011;206;48.782;9.252;2023-09-07T02:24:49;9.00;;;7.50;;
438;SDS011;206;48.782;9.252;2023-09-07T02:27:14;11.07;;;6.87;;
438;SDS011;206;48.782;9.252;2023-09-07T02:29:40;9.10;;;7.20;;
438;SDS011;206;48.782;9.252;2023-09-07T02:32:06;8.33;;;7.57;;
438;SDS011;206;48.782;9.252;2023-09-07T02:34:32;14.83;;;9.30;;
438;SDS011;206;48.782;9.252;2023-09-07T02:37:01;8.70;;;7.37;;
438;SDS011;206;48.782;9.252;2023-09-07T02:39:27;8.23;;;7.30;;
438;SDS011;206;48.782;9.252;2023-09-07T02:41:53;8.90;;;6.80;;
438;SDS011;206;48.782;9.252;2023-09-07T02:44:19;8.77;;;6.93;;
438;SDS011;206;48.782;9.252;2023-09-07T02:46:45;8.43;;;7.43;;
438;SDS011;206;48.782;9.252;2023-09-07T02:49:10;8.23;;;7.00;;
438;SDS011;206;48.782;9.252;2023-09-07T02:51:36;7.30;;;6.90;;
438;SDS011;206;48.782;9.252;2023-09-07T02:54:02;8.40;;;7.57;;
438;SDS011;206;48.782;9.252;2023-09-07T02:56:28;6.90;;;6.37;;
438;SDS011;206;48.782;9.252;2023-09-07T02:58:54;8.53;;;7.30;;
438;SDS011;206;48.782;9.252;2023-09-07T03:01:20;11.07;;;8.23;;
438;SDS011;206;48.782;9.252;2023-09-07T03:03:47;8.07;;;7.47;;
438;SDS011;206;48.782;9.252;2023-09-07T03:06:13;9.03;;;6.30;;
438;SDS011;206;48.782;9.252;2023-09-07T03:08:41;9.07;;;6.70;;
438;SDS011;206;48.782;9.252;2023-09-07T03:11:08;10.90;;;6.60;;
438;SDS011;206;48.782;9.252;2023-09-07T03:13:34;9.37;;;7.00;;
438;SDS011;206;48.782;9.252;2023-09-07T03:16:00;7.23;;;6.83;;
438;SDS011;206;48.782;9.252;2023-09-07T03:18:27;7.50;;;7.10;;
438;SDS011;206;48.782;9.252;2023-09-07T03:20:53;6.77;;;6.40;;
438;SDS011;206;48.782;9.252;2023-09-07T03:23:20;12.70;;;6.83;;
438;SDS011;206;48.782;9.252;2023-09-07T03:25:47;12.03;;;8.27;;
438;SDS011;206;48.782;9.252;2023-09-07T03:28:13;7.30;;;6.90;;
438;SDS011;206;48.782;9.252;2023-09-07T03:30:39;7.27;;;6.87;;
438;SDS011;206;48.782;9.252;2023-09-07T03:33:05;6.23;;;5.90;;
438;SDS011;206;48.782;9.252;2023-09-07T03:35:31;6.43;;;6.07;;
438;SDS011;206;48.782;9.252;2023-09-07T03:37:57;6.53;;;6.17;;
438;SDS011;206;48.782;9.252;2023-09-07T03:40:22;7.03;;;6.20;;
438;SDS011;206;48.782;9.252;2023-09-07T03:42:48;7.90;;;7.33;;
438;SDS011;206;48.782;9.252;2023-09-07T03:45:14;7.97;;;6.87;;
438;SDS011;206;48.782;9.252;2023-09-07T03:47:40;7.77;;;7.17;;
438;SDS011;206;48.782;9.252;2023-09-07T03:50:07;11.10;;;8.07;;
438;SDS011;206;48.782;9.252;2023-09-07T03:52:33;7.57;;;6.40;;
438;SDS011;206;48.782;9.252;2023-09-07T03:54:59;7.83;;;7.13;;
438;SDS011;206;48.782;9.252;2023-09-07T03:57:25;8.60;;;6.40;;
438;SDS011;206;48.782;9.252;2023-09-07T03:59:51;8.93;;;8.33;;
438;SDS011;206;48.782;9.252;2023-09-07T04:02:17;9.23;;;6.50;;
438;SDS011;206;48.782;9.252;2023-09-07T04:04:43;6.70;;;6.20;;
438;SDS011;206;48.782;9.252;2023-09-07T04:07:12;9.20;;;6.97;;
438;SDS011;206;48.782;9.252;2023-09-07T04:09:38;7.53;;;6.40;;
438;SDS011;206;48.782;9.252;2023-09-07T04:12:03;7.40;;;7.00;;
438;SDS011;206;48.782;9.252;2023-09-07T04:14:29;10.27;;;6.40;;
438;SDS011;206;48.782;9.252;2023-09-07T04:16:55;7.67;;;7.27;;
438;SDS011;206;48.782;9.252;2023-09-07T04:19:21;7.37;;;6.77;;
438;SDS011;206;48.782;9.252;2023-09-07T04:21:46;7.27;;;6.87;;
438;SDS011;206;48.782;9.252;2023-09-07T04:24:12;9.20;;;7.60;;
438;SDS011;206;48.782;9.252;2023-09-07T04:26:40;8.90;;;7.40;;
438;SDS011;206;48.782;9.252;2023-09-07T04:29:07;6.13;;;5.73;;
438;SDS011;206;48.782;9.252;2023-09-07T04:31:33;6.20;;;5.80;;
438;SDS011;206;48.782;9.252;2023-09-07T04:33:58;6.67;;;6.27;;
438;SDS011;206;48.782;9.252;2023-09-07T04:36:25;6.50;;;6.10;;
438;SDS011;206;48.782;9.252;2023-09-07T04:38:50;7.53;;;6.70;;
438;SDS011;206;48.782;9.252;2023-09-07T04:41:16;6.83;;;6.47;;
438;SDS011;206;48.782;9.252;2023-09-07T04:43:42;6.27;;;5.93;;
438;SDS011;206;48.782;9.252;2023-09-07T04:46:09;7.33;;;6.30;;
438;SDS011;206;48.782;9.252;2023-09-07T04:48:35;10.63;;;6.93;;
438;SDS011;206;48.782;9.252;2023-09-07T04:51:01;13.47;;;7.30;;
438;SDS011;206;48.782;9.252;2023-09-07T04:53:29;7.83;;;7.27;;
438;SDS011;206;48.782;9.252;2023-09-07T04:55:57;8.60;;;6.80;;
438;SDS011;206;48.782;9.252;2023-09-07T04:58:23;8.23;;;7.00;;
438;SDS011;206;48.782;9.252;2023-09-07T05:00:48;7.97;;;7.10;;
438;SDS011;206;48.782;9.252;2023-09-07T05:03:14;8.70;;;7.50;;
438;SDS011;206;48.782;9.252;2023-09-07T05:05:43;8.50;;;6.83;;
438;SDS011;206;48.782;9.252;2023-09-07T05:08:15;20.53;;;7.10;;
438;SDS011;206;48.782;9.252;2023-09-07T05:10:41;9.60;;;6.73;;
438;SDS011;206;48.782;9.252;2023-09-07T05:13:07;16.80;;;7.50;;
438;SDS011;206;48.782;9.252;2023-09-07T05:15:33;13.83;;;7.40;;
438;SDS011;206;48.782;9.252;2023-09-07T05:17:58;7.73;;;6.73;;
438;SDS011;206;48.782;9.252;2023-09-07T05:20:24;8.20;;;6.27;;
438;SDS011;206;48.782;9.252;2023-09-07T05:22:50;9.60;;;7.43;;
438;SDS011;206;48.782;9.252;2023-09-07T05:25:15;14.70;;;6.80;;
438;SDS011;206;48.782;9.252;2023-09-07T05:27:41;7.63;;;6.73;;
438;SDS011;206;48.782;9.252;2023-09-07T05:30:07;7.33;;;6.93;;
438;SDS011;206;48.782;9.252;2023-09-07T05:32:33;7.40;;;6.97;;
438;SDS011;206;48.782;9.252;2023-09-07T05:34:58;7.80;;;6.63;;
438;SDS011;206;48.782;9.252;2023-09-07T05:37:24;11.40;;;7.00;;
438;SDS011;206;48.782;9.252;2023-09-07T05:39:50;9.70;;;7.03;;
438;SDS011;206;48.782;9.252;2023-09-07T05:42:15;8.23;;;6.70;;
438;SDS011;206;48.782;9.252;2023-09-07T05:44:41;10.00;;;6.53;;
438;SDS011;206;48.782;9.252;2023-09-07T05:47:07;9.60;;;7.17;;
438;SDS011;206;48.782;9.252;2023-09-07T05:49:32;9.03;;;7.00;;
438;SDS011;206;48.782;9.252;2023-09-07T05:51:58;8.67;;;7.03;;
438;SDS011;206;48.782;9.252;2023-09-07T05:54:24;9.03;;;7.27;;
438;SDS011;206;48.782;9.252;2023-09-07T05:56:49;9.07;;;6.77;;
438;SDS011;206;48.782;9.252;2023-09-07T05:59:15;12.80;;;8.10;;
438;SDS011;206;48.782;9.252;2023-09-07T06:01:40;7.47;;;7.07;;
438;SDS011;206;48.782;9.252;2023-09-07T06:04:06;9.23;;;7.70;;
438;SDS011;206;48.782;9.252;2023-09-07T06:06:33;8.30;;;7.67;;
438;SDS011;206;48.782;9.252;2023-09-07T06:08:59;11.13;;;8.87;;
438;SDS011;206;48.782;9.252;2023-09-07T06:11:25;8.43;;;6.27;;
438;SDS011;206;48.782;9.252;2023-09-07T06:13:50;6.57;;;6.17;;
438;SDS011;206;48.782;9.252;2023-09-07T06:16:16;8.23;;;6.77;;
438;SDS011;206;48.782;9.252;2023-09-07T06:18:42;7.50;;;7.10;;
438;SDS011;206;48.782;9.252;2023-09-07T06:21:08;7.73;;;6.80;;
438;SDS011;206;48.782;9.252;2023-09-07T06:23:34;6.80;;;6.40;;
438;SDS011;206;48.782;9.252;2023-09-07T06:26:00;7.20;;;6.80;;
438;SDS011;206;48.782;9.252;2023-09-07T06:28:26;7.70;;;6.83;;
438;SDS011;206;48.782;9.252;2023-09-07T06:30:52;7.77;;;7.10;;
438;SDS011;206;48.782;9.252;2023-09-07T06:33:17;7.47;;;7.03;;
438;SDS011;206;48.782;9.252;2023-09-07T06:35:43;9.83;;;7.00;;
438;SDS011;206;48.782;9.252;2023-09-07T06:38:08;9.60;;;7.33;;
438;SDS011;206;48.782;9.252;2023-09-07T06:40:34;6.43;;;6.03;;
438;SDS011;206;48.782;9.252;2023-09-07T06:43:00;11.80;;;7.07;;
438;SDS011;206;48.782;9.252;2023-09-07T06:45:30;7.43;;;6.83;;
438;SDS011;206;48.782;9.252;2023-09-07T06:48:04;6.80;;;6.33;;
438;SDS011;206;48.782;9.252;2023-09-07T06:50:30;8.10;;;6.87;;
438;SDS011;206;48.782;9.252;2023-09-07T06:52:56;7.40;;;6.93;;
438;SDS011;206;48.782;9.252;2023-09-07T06:55:21;9.00;;;6.70;;
438;SDS011;206;48.782;9.252;2023-09-07T06:57:47;7.97;;;6.60;;
438;SDS011;206;48.782;9.252;2023-09-07T07:00:12;7.17;;;6.10;;
438;SDS011;206;48.782;9.252;2023-09-07T07:02:38;10.17;;;6.40;;
438;SDS011;206;48.782;9.252;2023-09-07T07:05:04;8.00;;;6.73;;
438;SDS011;206;48.782;9.252;2023-09-07T07:07:30;9.20;;;6.20;;
438;SDS011;206;48.782;9.252;2023-09-07T07:09:56;7.07;;;6.20;;
438;SDS011;206;48.782;9.252;2023-09-07T07:12:22;6.10;;;5.80;;
438;SDS011;206;48.782;9.252;2023-09-07T07:14:48;6.07;;;5.77;;
438;SDS011;206;48.782;9.252;2023-09-07T07:17:13;6.53;;;6.13;;
438;SDS011;206;48.782;9.252;2023-09-07T07:19:48;6.97;;;6.57;;
438;SDS011;206;48.782;9.252;2023-09-07T07:22:13;7.03;;;6.00;;
438;SDS011;206;48.782;9.252;2023-09-07T07:24:39;6.63;;;6.23;;
438;SDS011;206;48.782;9.252;2023-09-07T07:27:05;12.43;;;6.10;;
438;SDS011;206;48.782;9.252;2023-09-07T07:29:30;9.30;;;6.10;;
438;SDS011;206;48.782;9.252;2023-09-07T07:31:56;15.63;;;6.63;;
438;SDS011;206;48.782;9.252;2023-09-07T07:34:22;9.93;;;7.07;;
438;SDS011;206;48.782;9.252;2023-09-07T07:36:47;9.90;;;7.90;;
438;SDS011;206;48.782;9.252;2023-09-07T07:39:13;7.73;;;7.33;;
438;SDS011;206;48.782;9.252;2023-09-07T07:41:38;5.60;;;5.30;;
438;SDS011;206;48.782;9.252;2023-09-07T07:44:04;7.40;;;6.40;;
438;SDS011;206;48.782;9.252;2023-09-07T07:46:30;10.63;;;6.27;;
438;SDS011;206;48.782;9.252;2023-09-07T07:48:55;5.40;;;5.00;;
438;SDS011;206;48.782;9.252;2023-09-07T07:51:21;6.80;;;5.97;;
438;SDS011;206;48.782;9.252;2023-09-07T07:53:47;7.37;;;6.43;;
438;SDS011;206;48.782;9.252;2023-09-07T07:56:16;7.23;;;6.00;;
438;SDS011;206;48.782;9.252;2023-09-07T07:58:43;7.47;;;6.50;;
438;SDS011;206;48.782;9.252;2023-09-07T08:01:15;16.53;;;6.87;;
438;SDS011;206;48.782;9.252;2023-09-07T08:03:41;6.93;;;5.67;;
438;SDS011;206;48.782;9.252;2023-09-07T08:06:07;5.73;;;5.33;;
438;SDS011;206;48.782;9.252;2023-09-07T08:08:32;5.93;;;5.63;;
438;SDS011;206;48.782;9.252;2023-09-07T08:10:58;5.37;;;5.07;;
438;SDS011;206;48.782;9.252;2023-09-07T08:13:25;6.97;;;6.00;;
438;SDS011;206;48.782;9.252;2023-09-07T08:15:50;9.30;;;6.60;;
438;SDS011;206;48.782;9.252;2023-09-07T08:18:16;9.70;;;6.43;;
438;SDS011;206;48.782;9.252;2023-09-07T08:20:41;5.87;;;5.13;;
438;SDS011;206;48.782;9.252;2023-09-07T08:23:07;6.43;;;6.03;;
438;SDS011;206;48.782;9.252;2023-09-07T08:25:35;5.70;;;5.40;;
438;SDS011;206;48.782;9.252;2023-09-07T08:28:01;6.53;;;6.13;;
438;SDS011;206;48.782;9.252;2023-09-07T08:30:30;7.70;;;6.90;;
438;SDS011;206;48.782;9.252;2023-09-07T08:32:55;6.83;;;6.30;;
438;SDS011;206;48.782;9.252;2023-09-07T08:35:21;10.20;;;6.90;;
438;SDS011;206;48.782;9.252;2023-09-07T08:37:51;9.43;;;5.40;;
438;SDS011;206;48.782;9.252;2023-09-07T08:40:17;6.63;;;6.20;;
438;SDS011;206;48.782;9.252;2023-09-07T08:42:44;5.20;;;4.90;;
438;SDS011;206;48.782;9.252;2023-09-07T08:45:09;7.07;;;5.37;;
438;SDS011;206;48.782;9.252;2023-09-07T08:47:40;6.53;;;5.87;;
438;SDS011;206;48.782;9.252;2023-09-07T08:50:07;6.10;;;5.77;;
438;SDS011;206;48.782;9.252;2023-09-07T08:52:36;7.40;;;5.93;;
438;SDS011;206;48.782;9.252;2023-09-07T08:55:02;5.50;;;5.27;;
438;SDS011;206;48.782;9.252;2023-09-07T08:57:31;6.80;;;5.60;;
438;SDS011;206;48.782;9.252;2023-09-07T08:59:57;8.90;;;6.50;;
438;SDS011;206;48.782;9.252;2023-09-07T09:02:23;10.40;;;7.03;;
438;SDS011;206;48.782;9.252;2023-09-07T09:04:49;6.60;;;6.20;;
438;SDS011;206;48.782;9.252;2023-09-07T09:07:15;6.70;;;6.37;;
438;SDS011;206;48.782;9.252;2023-09-07T09:09:41;6.53;;;6.13;;
438;SDS011;206;48.782;9.252;2023-09-07T09:12:07;7.20;;;6.03;;
438;SDS011;206;48.782;9.252;2023-09-07T09:14:37;8.50;;;6.73;;
438;SDS011;206;48.782;9.252;2023-09-07T09:17:02;13.43;;;5.73;;
438;SDS011;206;48.782;9.252;2023-09-07T09:19:31;9.33;;;6.43;;
438;SDS011;206;48.782;9.252;2023-09-07T09:21:57;9.73;;;6.13;;
438;SDS011;206;48.782;9.252;2023-09-07T09:24:23;9.63;;;6.70;;
438;SDS011;206;48.782;9.252;2023-09-07T09:26:49;6.17;;;5.90;;
438;SDS011;206;48.782;9.252;2023-09-07T09:29:15;7.07;;;6.70;;
438;SDS011;206;48.782;9.252;2023-09-07T09:31:40;9.83;;;6.70;;
438;SDS011;206;48.782;9.252;2023-09-07T09:34:06;14.03;;;7.27;;
438;SDS011;206;48.782;9.252;2023-09-07T09:36:35;7.07;;;6.37;;
438;SDS011;206;48.782;9.252;2023-09-07T09:39:02;9.67;;;7.43;;
438;SDS011;206;48.782;9.252;2023-09-07T09:41:30;7.20;;;6.80;;
438;SDS011;206;48.782;9.252;2023-09-07T09:43:58;8.37;;;6.50;;
438;SDS011;206;48.782;9.252;2023-09-07T09:46:27;14.43;;;6.93;;
438;SDS011;206;48.782;9.252;2023-09-07T09:48:54;6.93;;;6.27;;
438;SDS011;206;48.782;9.252;2023-09-07T09:51:20;8.60;;;6.50;;
438;SDS011;206;48.782;9.252;2023-09-07T09:53:47;7.83;;;7.43;;
438;SDS011;206;48.782;9.252;2023-09-07T09:56:14;7.37;;;7.00;;
438;SDS011;206;48.782;9.252;2023-09-07T09:58:40;8.63;;;7.83;;
438;SDS011;206;48.782;9.252;2023-09-07T10:01:05;9.10;;;6.60;;
438;SDS011;206;48.782;9.252;2023-09-07T10:03:33;11.10;;;6.60;;
438;SDS011;206;48.782;9.252;2023-09-07T10:06:11;8.37;;;6.17;;
438;SDS011;206;48.782;9.252;2023-09-07T10:09:01;6.67;;;6.27;;
438;SDS011;206;48.782;9.252;2023-09-07T10:11:32;7.83;;;5.77;;
438;SDS011;206;48.782;9.252;2023-09-07T10:14:00;7.10;;;6.10;;
438;SDS011;206;48.782;9.252;2023-09-07T10:19:17;7.20;;;6.80;;
438;SDS011;206;48.782;9.252;2023-09-07T10:21:47;6.60;;;6.20;;
438;SDS011;206;48.782;9.252;2023-09-07T10:24:26;9.50;;;6.40;;
438;SDS011;206;48.782;9.252;2023-09-07T10:27:04;8.00;;;6.63;;
438;SDS011;206;48.782;9.252;2023-09-07T10:29:53;10.87;;;7.27;;
438;SDS011;206;48.782;9.252;2023-09-07T10:32:18;6.83;;;5.80;;
438;SDS011;206;48.782;9.252;2023-09-07T10:34:43;13.07;;;6.20;;
438;SDS011;206;48.782;9.252;2023-09-07T10:37:10;7.67;;;6.93;;
438;SDS011;206;48.782;9.252;2023-09-07T10:39:40;8.50;;;5.90;;
438;SDS011;206;48.782;9.252;2023-09-07T10:44:51;5.80;;;5.43;;
438;SDS011;206;48.782;9.252;2023-09-07T10:47:16;6.20;;;5.53;;
438;SDS011;206;48.782;9.252;2023-09-07T10:49:42;6.00;;;5.70;;
438;SDS011;206;48.782;9.252;2023-09-07T10:52:09;8.20;;;5.57;;
438;SDS011;206;48.782;9.252;2023-09-07T10:54:34;6.97;;;6.23;;
438;SDS011;206;48.782;9.252;2023-09-07T10:57:12;10.77;;;6.83;;
438;SDS011;206;48.782;9.252;2023-09-07T10:59:44;6.60;;;5.80;;
438;SDS011;206;48.782;9.252;2023-09-07T11:02:11;7.93;;;5.80;;
438;SDS011;206;48.782;9.252;2023-09-07T11:04:36;8.50;;;6.17;;
438;SDS011;206;48.782;9.252;2023-09-07T11:07:02;6.83;;;6.43;;
438;SDS011;206;48.782;9.252;2023-09-07T11:09:32;10.07;;;6.70;;
438;SDS011;206;48.782;9.252;2023-09-07T11:12:03;5.97;;;5.70;;
438;SDS011;206;48.782;9.252;2023-09-07T11:14:29;9.70;;;5.73;;
438;SDS011;206;48.782;9.252;2023-09-07T11:16:56;7.10;;;5.87;;
438;SDS011;206;48.782;9.252;2023-09-07T11:19:22;5.70;;;5.40;;
438;SDS011;206;48.782;9.252;2023-09-07T11:21:47;5.60;;;5.30;;
438;SDS011;206;48.782;9.252;2023-09-07T11:24:13;6.50;;;6.03;;
438;SDS011;206;48.782;9.252;2023-09-07T11:26:42;7.57;;;5.53;;
438;SDS011;206;48.782;9.252;2023-09-07T11:29:10;4.90;;;4.60;;
438;SDS011;206;48.782;9.252;2023-09-07T11:31:39;5.30;;;5.00;;
438;SDS011;206;48.782;9.252;2023-09-07T11:34:08;5.83;;;5.53;;
438;SDS011;206;48.782;9.252;2023-09-07T11:36:35;5.23;;;4.93;;
438;SDS011;206;48.782;9.252;2023-09-07T11:39:01;6.17;;;5.30;;
438;SDS011;206;48.782;9.252;2023-09-07T11:41:30;9.07;;;6.00;;
438;SDS011;206;48.782;9.252;2023-09-07T11:43:56;7.03;;;5.10;;
438;SDS011;206;48.782;9.252;2023-09-07T11:46:22;6.10;;;5.80;;
438;SDS011;206;48.782;9.252;2023-09-07T11:48:47;5.60;;;5.30;;
438;SDS011;206;48.782;9.252;2023-09-07T11:51:13;5.20;;;4.90;;
438;SDS011;206;48.782;9.252;2023-09-07T11:53:38;7.10;;;4.93;;
438;SDS011;206;48.782;9.252;2023-09-07T11:56:04;9.57;;;5.77;;
438;SDS011;206;48.782;9.252;2023-09-07T11:58:29;4.60;;;4.30;;
438;SDS011;206;48.782;9.252;2023-09-07T12:00:55;5.27;;;4.97;;
438;SDS011;206;48.782;9.252;2023-09-07T12:03:21;8.70;;;4.93;;
438;SDS011;206;48.782;9.252;2023-09-07T12:05:46;9.00;;;5.70;;
438;SDS011;206;48.782;9.252;2023-09-07T12:08:12;8.37;;;5.63;;
438;SDS011;206;48.782;9.252;2023-09-07T12:10:39;5.27;;;4.73;;
438;SDS011;206;48.782;9.252;2023-09-07T12:13:05;8.83;;;4.73;;
438;SDS011;206;48.782;9.252;2023-09-07T12:15:30;7.67;;;5.00;;
438;SDS011;206;48.782;9.252;2023-09-07T12:17:56;4.73;;;4.43;;
438;SDS011;206;48.782;9.252;2023-09-07T12:20:22;4.53;;;4.20;;
438;SDS011;206;48.782;9.252;2023-09-07T12:22:48;5.90;;;5.20;;
438;SDS011;206;48.782;9.252;2023-09-07T12:25:14;5.90;;;4.63;;
438;SDS011;206;48.782;9.252;2023-09-07T12:27:40;6.83;;;5.17;;
438;SDS011;206;48.782;9.252;2023-09-07T12:30:08;4.40;;;4.10;;
438;SDS011;206;48.782;9.252;2023-09-07T12:32:37;4.40;;;4.10;;
438;SDS011;206;48.782;9.252;2023-09-07T12:35:03;4.70;;;4.40;;
438;SDS011;206;48.782;9.252;2023-09-07T12:37:33;4.60;;;3.83;;
438;SDS011;206;48.782;9.252;2023-09-07T12:40:00;4.67;;;4.37;;
438;SDS011;206;48.782;9.252;2023-09-07T12:42:26;4.67;;;4.43;;
438;SDS011;206;48.782;9.252;2023-09-07T12:44:51;5.60;;;5.30;;
438;SDS011;206;48.782;9.252;2023-09-07T12:47:17;4.67;;;4.40;;
438;SDS011;206;48.782;9.252;2023-09-07T12:49:43;9.90;;;4.70;;
438;SDS011;206;48.782;9.252;2023-09-07T12:52:08;5.00;;;4.47;;
438;SDS011;206;48.782;9.252;2023-09-07T12:54:35;5.70;;;4.10;;
438;SDS011;206;48.782;9.252;2023-09-07T12:57:01;3.70;;;3.50;;
438;SDS011;206;48.782;9.252;2023-09-07T12:59:28;5.50;;;3.80;;
438;SDS011;206;48.782;9.252;2023-09-07T13:01:54;4.80;;;4.50;;
438;SDS011;206;48.782;9.252;2023-09-07T13:04:21;5.40;;;5.10;;
438;SDS011;206;48.782;9.252;2023-09-07T13:06:46;4.47;;;4.17;;
438;SDS011;206;48.782;9.252;2023-09-07T13:09:12;5.10;;;4.70;;
438;SDS011;206;48.782;9.252;2023-09-07T13:11:38;4.30;;;4.00;;
438;SDS011;206;48.782;9.252;2023-09-07T13:14:04;6.03;;;4.20;;
438;SDS011;206;48.782;9.252;2023-09-07T13:16:30;4.43;;;3.60;;
438;SDS011;206;48.782;9.252;2023-09-07T13:18:57;4.77;;;4.10;;
438;SDS011;206;48.782;9.252;2023-09-07T13:21:23;5.00;;;4.70;;
438;SDS011;206;48.782;9.252;2023-09-07T13:23:49;5.47;;;5.07;;
438;SDS011;206;48.782;9.252;2023-09-07T13:26:15;5.40;;;4.00;;
438;SDS011;206;48.782;9.252;2023-09-07T13:28:40;7.37;;;4.30;;
438;SDS011;206;48.782;9.252;2023-09-07T13:31:06;5.33;;;4.97;;
438;SDS011;206;48.782;9.252;2023-09-07T13:33:32;4.70;;;4.40;;
438;SDS011;206;48.782;9.252;2023-09-07T13:35:57;4.90;;;4.30;;
438;SDS011;206;48.782;9.252;2023-09-07T13:38:23;4.47;;;4.17;;
438;SDS011;206;48.782;9.252;2023-09-07T13:40:48;5.60;;;4.00;;
438;SDS011;206;48.782;9.252;2023-09-07T13:43:14;5.20;;;4.30;;
438;SDS011;206;48.782;9.252;2023-09-07T13:45:40;6.40;;;3.90;;
438;SDS011;206;48.782;9.252;2023-09-07T13:48:05;4.80;;;4.27;;
438;SDS011;206;48.782;9.252;2023-09-07T13:50:31;4.73;;;4.47;;
438;SDS011;206;48.782;9.252;2023-09-07T13:52:57;5.43;;;5.00;;
438;SDS011;206;48.782;9.252;2023-09-07T13:55:22;4.83;;;4.53;;
438;SDS011;206;48.782;9.252;2023-09-07T13:57:50;4.87;;;4.07;;
438;SDS011;206;48.782;9.252;2023-09-07T14:00:15;4.60;;;3.80;;
438;SDS011;206;48.782;9.252;2023-09-07T14:02:41;3.90;;;3.70;;
438;SDS011;206;48.782;9.252;2023-09-07T14:05:07;9.00;;;4.20;;
438;SDS011;206;48.782;9.252;2023-09-07T14:07:33;4.10;;;3.90;;
438;SDS011;206;48.782;9.252;2023-09-07T14:09:59;5.30;;;3.80;;
438;SDS011;206;48.782;9.252;2023-09-07T14:12:25;4.50;;;4.20;;
438;SDS011;206;48.782;9.252;2023-09-07T14:14:52;6.20;;;4.53;;
438;SDS011;206;48.782;9.252;2023-09-07T14:17:17;4.70;;;4.40;;
438;SDS011;206;48.782;9.252;2023-09-07T14:19:43;4.73;;;4.43;;
438;SDS011;206;48.782;9.252;2023-09-07T14:22:10;4.30;;;4.00;;
438;SDS011;206;48.782;9.252;2023-09-07T14:24:36;5.90;;;4.20;;
438;SDS011;206;48.782;9.252;2023-09-07T14:27:02;3.87;;;3.67;;
438;SDS011;206;48.782;9.252;2023-09-07T14:40:31;4.43;;;3.63;;
438;SDS011;206;48.782;9.252;2023-09-07T14:42:57;5.63;;;5.33;;
438;SDS011;206;48.782;9.252;2023-09-07T14:45:23;4.90;;;3.93;;
438;SDS011;206;48.782;9.252;2023-09-07T14:47:50;5.40;;;4.73;;
438;SDS011;206;48.782;9.252;2023-09-07T14:50:18;4.70;;;3.90;;
438;SDS011;206;48.782;9.252;2023-09-07T14:52:44;5.00;;;4.70;;
438;SDS011;206;48.782;9.252;2023-09-07T14:55:12;3.90;;;3.70;;
438;SDS011;206;48.782;9.252;2023-09-07T14:57:39;4.77;;;4.47;;
438;SDS011;206;48.782;9.252;2023-09-07T15:00:04;3.90;;;3.73;;
438;SDS011;206;48.782;9.252;2023-09-07T15:02:30;6.73;;;4.73;;
438;SDS011;206;48.782;9.252;2023-09-07T15:04:56;4.77;;;3.63;;
438;SDS011;206;48.782;9.252;2023-09-07T15:07:22;7.43;;;5.20;;
438;SDS011;206;48.782;9.252;2023-09-07T15:09:49;5.87;;;4.03;;
438;SDS011;206;48.782;9.252;2023-09-07T15:12:15;4.27;;;4.00;;
438;SDS011;206;48.782;9.252;2023-09-07T15:14:40;6.10;;;4.77;;
438;SDS011;206;48.782;9.252;2023-09-07T15:17:06;4.50;;;4.20;;
438;SDS011;206;48.782;9.252;2023-09-07T15:19:32;6.27;;;5.00;;
438;SDS011;206;48.782;9.252;2023-09-07T15:21:59;5.10;;;4.80;;
438;SDS011;206;48.782;9.252;2023-09-07T15:24:25;4.90;;;4.60;;
438;SDS011;206;48.782;9.252;2023-09-07T15:26:51;4.30;;;3.97;;
438;SDS011;206;48.782;9.252;2023-09-07T15:29:16;4.37;;;3.73;;
438;SDS011;206;48.782;9.252;2023-09-07T15:31:42;10.63;;;4.80;;
438;SDS011;206;48.782;9.252;2023-09-07T15:34:07;5.00;;;4.70;;
438;SDS011;206;48.782;9.252;2023-09-07T15:36:33;5.00;;;4.30;;
438;SDS011;206;48.782;9.252;2023-09-07T15:38:59;4.50;;;4.20;;
438;SDS011;206;48.782;9.252;2023-09-07T15:41:25;4.27;;;4.00;;
438;SDS011;206;48.782;9.252;2023-09-07T15:43:51;5.77;;;4.10;;
438;SDS011;206;48.782;9.252;2023-09-07T15:46:18;4.63;;;4.33;;
438;SDS011;206;48.782;9.252;2023-09-07T15:48:44;4.93;;;4.50;;
438;SDS011;206;48.782;9.252;2023-09-07T15:51:10;3.83;;;3.63;;
438;SDS011;206;48.782;9.252;2023-09-07T15:53:36;4.10;;;3.90;;